sensor_id;sensor_type;location;lat;lon;timestamp;temperature;humidity
18575;DHT22;9417;16.484;102.872;2022-10-18T00:01:41;21.40;96.90
18575;DHT22;9417;16.484;102.872;2022-10-18T00:03:48;21.40;96.60
18575;DHT22;9417;16.484;102.872;2022-10-18T00:05:55;21.40;96.40
18575;DHT22;9417;16.484;102.872;2022-10-18T00:08:02;21.40;96.50
18575;DHT22;9417;16.484;102.872;2022-10-18T00:10:09;21.40;96.20
18575;DHT22;9417;16.484;102.872;2022-10-18T00:12:17;21.50;96.40
18575;DHT22;9417;16.484;102.872;2022-10-18T00:14:24;21.50;96.40
18575;DHT22;9417;16.484;102.872;2022-10-18T00:16:31;21.50;96.10
18575;DHT22;9417;16.484;102.872;2022-10-18T00:18:40;21.60;96.20
18575;DHT22;9417;16.484;102.872;2022-10-18T00:20:57;21.60;96.00
18575;DHT22;9417;16.484;102.872;2022-10-18T00:23:04;21.70;96.10
18575;DHT22;9417;16.484;102.872;2022-10-18T00:25:11;21.70;96.10
18575;DHT22;9417;16.484;102.872;2022-10-18T00:27:19;21.80;96.00
18575;DHT22;9417;16.484;102.872;2022-10-18T00:29:26;21.90;95.80
18575;DHT22;9417;16.484;102.872;2022-10-18T00:31:34;21.90;95.40
18575;DHT22;9417;16.484;102.872;2022-10-18T00:33:44;22.00;95.00
18575;DHT22;9417;16.484;102.872;2022-10-18T00:35:51;22.10;94.70
18575;DHT22;9417;16.484;102.872;2022-10-18T00:37:59;22.10;94.40
18575;DHT22;9417;16.484;102.872;2022-10-18T00:40:07;22.20;94.00
18575;DHT22;9417;16.484;102.872;2022-10-18T00:42:16;22.20;94.00
18575;DHT22;9417;16.484;102.872;2022-10-18T00:45:01;22.30;93.80
18575;DHT22;9417;16.484;102.872;2022-10-18T00:47:10;22.30;93.80
18575;DHT22;9417;16.484;102.872;2022-10-18T00:49:22;22.40;93.70
18575;DHT22;9417;16.484;102.872;2022-10-18T00:51:32;22.50;93.50
18575;DHT22;9417;16.484;102.872;2022-10-18T00:53:40;22.50;93.20
18575;DHT22;9417;16.484;102.872;2022-10-18T00:55:47;22.60;92.60
18575;DHT22;9417;16.484;102.872;2022-10-18T00:57:55;22.60;91.90
18575;DHT22;9417;16.484;102.872;2022-10-18T01:00:04;22.70;91.40
18575;DHT22;9417;16.484;102.872;2022-10-18T01:02:13;22.70;90.80
18575;DHT22;9417;16.484;102.872;2022-10-18T01:04:24;22.80;90.50
18575;DHT22;9417;16.484;102.872;2022-10-18T01:06:31;22.80;89.80
18575;DHT22;9417;16.484;102.872;2022-10-18T01:08:46;22.80;89.40
18575;DHT22;9417;16.484;102.872;2022-10-18T01:10:59;22.90;89.20
18575;DHT22;9417;16.484;102.872;2022-10-18T01:13:17;23.00;89.30
18575;DHT22;9417;16.484;102.872;2022-10-18T01:15:30;23.00;89.10
18575;DHT22;9417;16.484;102.872;2022-10-18T01:17:49;23.10;88.50
18575;DHT22;9417;16.484;102.872;2022-10-18T01:20:37;23.10;87.80
18575;DHT22;9417;16.484;102.872;2022-10-18T01:22:50;23.20;86.90
18575;DHT22;9417;16.484;102.872;2022-10-18T01:25:06;23.20;87.00
18575;DHT22;9417;16.484;102.872;2022-10-18T01:27:34;23.30;87.10
18575;DHT22;9417;16.484;102.872;2022-10-18T01:29:54;23.40;87.00
18575;DHT22;9417;16.484;102.872;2022-10-18T01:32:09;23.50;87.10
18575;DHT22;9417;16.484;102.872;2022-10-18T01:34:18;23.50;86.30
18575;DHT22;9417;16.484;102.872;2022-10-18T01:36:29;23.60;85.90
18575;DHT22;9417;16.484;102.872;2022-10-18T01:38:38;23.60;85.10
18575;DHT22;9417;16.484;102.872;2022-10-18T01:40:48;23.70;84.50
18575;DHT22;9417;16.484;102.872;2022-10-18T01:42:56;23.80;84.70
18575;DHT22;9417;16.484;102.872;2022-10-18T01:45:04;23.90;85.00
18575;DHT22;9417;16.484;102.872;2022-10-18T01:47:15;23.90;83.70
18575;DHT22;9417;16.484;102.872;2022-10-18T01:49:23;24.00;83.00
18575;DHT22;9417;16.484;102.872;2022-10-18T01:51:32;24.20;83.10
18575;DHT22;9417;16.484;102.872;2022-10-18T01:53:39;24.20;82.30
18575;DHT22;9417;16.484;102.872;2022-10-18T01:55:53;24.30;81.40
18575;DHT22;9417;16.484;102.872;2022-10-18T01:58:05;24.40;80.30
18575;DHT22;9417;16.484;102.872;2022-10-18T02:00:18;24.40;80.50
18575;DHT22;9417;16.484;102.872;2022-10-18T02:02:40;24.50;80.70
18575;DHT22;9417;16.484;102.872;2022-10-18T02:04:57;24.70;80.40
18575;DHT22;9417;16.484;102.872;2022-10-18T02:07:20;24.80;79.20
18575;DHT22;9417;16.484;102.872;2022-10-18T02:09:34;24.80;75.50
18575;DHT22;9417;16.484;102.872;2022-10-18T02:11:46;24.90;76.60
18575;DHT22;9417;16.484;102.872;2022-10-18T02:13:56;25.10;76.90
18575;DHT22;9417;16.484;102.872;2022-10-18T02:16:09;25.10;75.60
18575;DHT22;9417;16.484;102.872;2022-10-18T02:18:23;25.20;73.50
18575;DHT22;9417;16.484;102.872;2022-10-18T02:20:31;25.20;73.70
18575;DHT22;9417;16.484;102.872;2022-10-18T02:22:39;25.30;72.40
18575;DHT22;9417;16.484;102.872;2022-10-18T02:24:52;25.40;71.50
18575;DHT22;9417;16.484;102.872;2022-10-18T02:27:00;25.50;72.50
18575;DHT22;9417;16.484;102.872;2022-10-18T02:29:07;25.50;69.40
18575;DHT22;9417;16.484;102.872;2022-10-18T02:31:19;25.60;68.90
18575;DHT22;9417;16.484;102.872;2022-10-18T02:33:35;25.60;68.20
18575;DHT22;9417;16.484;102.872;2022-10-18T02:35:48;25.60;68.70
18575;DHT22;9417;16.484;102.872;2022-10-18T02:37:57;25.70;69.10
18575;DHT22;9417;16.484;102.872;2022-10-18T02:40:07;25.80;70.60
18575;DHT22;9417;16.484;102.872;2022-10-18T02:42:15;25.80;69.10
18575;DHT22;9417;16.484;102.872;2022-10-18T02:44:22;25.90;69.80
18575;DHT22;9417;16.484;102.872;2022-10-18T02:46:29;25.90;67.90
18575;DHT22;9417;16.484;102.872;2022-10-18T02:48:38;26.00;68.70
18575;DHT22;9417;16.484;102.872;2022-10-18T02:50:45;26.00;69.60
18575;DHT22;9417;16.484;102.872;2022-10-18T02:52:52;26.10;68.70
18575;DHT22;9417;16.484;102.872;2022-10-18T02:54:59;26.10;66.40
18575;DHT22;9417;16.484;102.872;2022-10-18T02:57:06;26.10;66.90
18575;DHT22;9417;16.484;102.872;2022-10-18T02:59:14;26.20;66.80
18575;DHT22;9417;16.484;102.872;2022-10-18T03:01:21;26.30;67.00
18575;DHT22;9417;16.484;102.872;2022-10-18T03:03:28;26.30;67.30
18575;DHT22;9417;16.484;102.872;2022-10-18T03:05:37;26.40;67.10
18575;DHT22;9417;16.484;102.872;2022-10-18T03:07:44;26.40;66.60
18575;DHT22;9417;16.484;102.872;2022-10-18T03:09:52;26.50;66.50
18575;DHT22;9417;16.484;102.872;2022-10-18T03:11:59;26.50;65.00
18575;DHT22;9417;16.484;102.872;2022-10-18T03:14:06;26.60;66.40
18575;DHT22;9417;16.484;102.872;2022-10-18T03:16:13;26.60;64.40
18575;DHT22;9417;16.484;102.872;2022-10-18T03:18:20;26.80;65.10
18575;DHT22;9417;16.484;102.872;2022-10-18T03:20:27;26.80;63.70
18575;DHT22;9417;16.484;102.872;2022-10-18T03:22:36;26.80;62.30
18575;DHT22;9417;16.484;102.872;2022-10-18T03:24:43;26.90;64.20
18575;DHT22;9417;16.484;102.872;2022-10-18T03:26:50;26.90;63.20
18575;DHT22;9417;16.484;102.872;2022-10-18T03:28:57;27.00;63.70
18575;DHT22;9417;16.484;102.872;2022-10-18T03:31:04;27.00;63.70
18575;DHT22;9417;16.484;102.872;2022-10-18T03:33:11;27.10;64.10
18575;DHT22;9417;16.484;102.872;2022-10-18T03:35:18;27.10;62.40
18575;DHT22;9417;16.484;102.872;2022-10-18T03:37:26;27.20;62.30
18575;DHT22;9417;16.484;102.872;2022-10-18T03:39:37;27.20;59.90
18575;DHT22;9417;16.484;102.872;2022-10-18T03:41:44;27.30;61.50
18575;DHT22;9417;16.484;102.872;2022-10-18T03:43:51;27.30;61.60
18575;DHT22;9417;16.484;102.872;2022-10-18T03:45:58;27.40;62.20
18575;DHT22;9417;16.484;102.872;2022-10-18T03:48:06;27.40;60.80
18575;DHT22;9417;16.484;102.872;2022-10-18T03:50:13;27.50;61.70
18575;DHT22;9417;16.484;102.872;2022-10-18T03:52:20;27.60;61.90
18575;DHT22;9417;16.484;102.872;2022-10-18T03:54:27;27.60;61.20
18575;DHT22;9417;16.484;102.872;2022-10-18T03:56:36;27.70;60.50
18575;DHT22;9417;16.484;102.872;2022-10-18T03:58:43;27.80;61.40
18575;DHT22;9417;16.484;102.872;2022-10-18T04:00:50;27.90;62.10
18575;DHT22;9417;16.484;102.872;2022-10-18T04:02:58;28.00;62.50
18575;DHT22;9417;16.484;102.872;2022-10-18T04:05:05;28.10;62.50
18575;DHT22;9417;16.484;102.872;2022-10-18T04:07:13;28.10;60.90
18575;DHT22;9417;16.484;102.872;2022-10-18T04:09:20;28.20;61.00
18575;DHT22;9417;16.484;102.872;2022-10-18T04:11:27;28.10;56.50
18575;DHT22;9417;16.484;102.872;2022-10-18T04:13:36;28.10;57.10
18575;DHT22;9417;16.484;102.872;2022-10-18T04:15:43;28.10;58.40
18575;DHT22;9417;16.484;102.872;2022-10-18T04:17:50;28.20;58.70
18575;DHT22;9417;16.484;102.872;2022-10-18T04:19:57;28.20;57.10
18575;DHT22;9417;16.484;102.872;2022-10-18T04:22:04;28.30;58.00
18575;DHT22;9417;16.484;102.872;2022-10-18T04:24:11;28.30;58.10
18575;DHT22;9417;16.484;102.872;2022-10-18T04:26:18;28.30;57.70
18575;DHT22;9417;16.484;102.872;2022-10-18T04:28:26;28.40;56.40
18575;DHT22;9417;16.484;102.872;2022-10-18T04:30:41;28.40;57.00
18575;DHT22;9417;16.484;102.872;2022-10-18T04:32:48;28.40;56.60
18575;DHT22;9417;16.484;102.872;2022-10-18T04:34:55;28.40;56.00
18575;DHT22;9417;16.484;102.872;2022-10-18T04:37:02;28.40;57.10
18575;DHT22;9417;16.484;102.872;2022-10-18T04:39:09;28.50;58.20
18575;DHT22;9417;16.484;102.872;2022-10-18T04:41:17;28.50;55.60
18575;DHT22;9417;16.484;102.872;2022-10-18T04:43:24;28.50;55.80
18575;DHT22;9417;16.484;102.872;2022-10-18T04:45:31;28.50;56.20
18575;DHT22;9417;16.484;102.872;2022-10-18T04:47:40;28.50;55.80
18575;DHT22;9417;16.484;102.872;2022-10-18T04:49:47;28.60;56.10
18575;DHT22;9417;16.484;102.872;2022-10-18T04:51:55;28.60;55.80
18575;DHT22;9417;16.484;102.872;2022-10-18T04:54:02;28.70;56.20
18575;DHT22;9417;16.484;102.872;2022-10-18T04:56:09;28.70;54.50
18575;DHT22;9417;16.484;102.872;2022-10-18T04:58:16;28.70;53.10
18575;DHT22;9417;16.484;102.872;2022-10-18T05:00:23;28.60;55.30
18575;DHT22;9417;16.484;102.872;2022-10-18T05:02:30;28.70;55.70
18575;DHT22;9417;16.484;102.872;2022-10-18T05:04:39;28.80;55.80
18575;DHT22;9417;16.484;102.872;2022-10-18T05:06:47;28.80;54.00
18575;DHT22;9417;16.484;102.872;2022-10-18T05:08:54;28.80;54.80
18575;DHT22;9417;16.484;102.872;2022-10-18T05:11:14;28.80;53.80
18575;DHT22;9417;16.484;102.872;2022-10-18T05:13:22;28.90;55.40
18575;DHT22;9417;16.484;102.872;2022-10-18T05:15:29;28.90;52.60
18575;DHT22;9417;16.484;102.872;2022-10-18T05:17:36;29.00;55.00
18575;DHT22;9417;16.484;102.872;2022-10-18T05:19:45;29.00;55.70
18575;DHT22;9417;16.484;102.872;2022-10-18T05:21:52;29.00;53.60
18575;DHT22;9417;16.484;102.872;2022-10-18T05:23:59;29.00;52.00
18575;DHT22;9417;16.484;102.872;2022-10-18T05:26:07;29.00;51.30
18575;DHT22;9417;16.484;102.872;2022-10-18T05:28:14;29.00;53.00
18575;DHT22;9417;16.484;102.872;2022-10-18T05:30:41;29.00;53.30
18575;DHT22;9417;16.484;102.872;2022-10-18T05:32:48;29.10;54.80
18575;DHT22;9417;16.484;102.872;2022-10-18T05:34:57;29.20;53.50
18575;DHT22;9417;16.484;102.872;2022-10-18T05:37:04;29.30;55.60
18575;DHT22;9417;16.484;102.872;2022-10-18T05:39:11;29.40;56.90
18575;DHT22;9417;16.484;102.872;2022-10-18T05:41:18;29.40;55.30
18575;DHT22;9417;16.484;102.872;2022-10-18T05:43:27;29.40;53.80
18575;DHT22;9417;16.484;102.872;2022-10-18T05:45:34;29.40;54.10
18575;DHT22;9417;16.484;102.872;2022-10-18T05:47:41;29.40;53.60
18575;DHT22;9417;16.484;102.872;2022-10-18T05:49:48;29.30;53.20
18575;DHT22;9417;16.484;102.872;2022-10-18T05:51:57;29.40;54.60
18575;DHT22;9417;16.484;102.872;2022-10-18T05:54:04;29.40;53.70
18575;DHT22;9417;16.484;102.872;2022-10-18T05:56:11;29.40;52.00
18575;DHT22;9417;16.484;102.872;2022-10-18T05:58:18;29.40;52.90
18575;DHT22;9417;16.484;102.872;2022-10-18T06:00:25;29.50;51.80
18575;DHT22;9417;16.484;102.872;2022-10-18T06:02:32;29.60;52.40
18575;DHT22;9417;16.484;102.872;2022-10-18T06:04:39;29.70;52.50
18575;DHT22;9417;16.484;102.872;2022-10-18T06:06:47;29.60;51.40
18575;DHT22;9417;16.484;102.872;2022-10-18T06:08:56;29.70;52.40
18575;DHT22;9417;16.484;102.872;2022-10-18T06:11:06;29.70;51.20
18575;DHT22;9417;16.484;102.872;2022-10-18T06:13:13;29.70;51.10
18575;DHT22;9417;16.484;102.872;2022-10-18T06:15:20;29.70;51.40
18575;DHT22;9417;16.484;102.872;2022-10-18T06:17:27;29.70;51.60
18575;DHT22;9417;16.484;102.872;2022-10-18T06:19:35;29.80;51.90
18575;DHT22;9417;16.484;102.872;2022-10-18T06:21:43;29.80;51.10
18575;DHT22;9417;16.484;102.872;2022-10-18T06:23:51;29.90;52.10
18575;DHT22;9417;16.484;102.872;2022-10-18T06:26:04;29.90;51.60
18575;DHT22;9417;16.484;102.872;2022-10-18T06:28:11;30.00;51.90
18575;DHT22;9417;16.484;102.872;2022-10-18T06:30:18;29.90;52.00
18575;DHT22;9417;16.484;102.872;2022-10-18T06:32:25;30.00;51.70
18575;DHT22;9417;16.484;102.872;2022-10-18T06:34:33;30.00;52.20
18575;DHT22;9417;16.484;102.872;2022-10-18T06:36:40;30.00;52.30
18575;DHT22;9417;16.484;102.872;2022-10-18T06:38:47;30.10;51.70
18575;DHT22;9417;16.484;102.872;2022-10-18T06:40:54;30.10;52.00
18575;DHT22;9417;16.484;102.872;2022-10-18T06:43:04;30.20;51.00
18575;DHT22;9417;16.484;102.872;2022-10-18T06:45:22;30.20;50.60
18575;DHT22;9417;16.484;102.872;2022-10-18T06:47:29;30.20;49.70
18575;DHT22;9417;16.484;102.872;2022-10-18T06:49:37;30.30;50.60
18575;DHT22;9417;16.484;102.872;2022-10-18T06:51:44;30.20;50.70
18575;DHT22;9417;16.484;102.872;2022-10-18T06:53:51;30.30;51.20
18575;DHT22;9417;16.484;102.872;2022-10-18T06:56:18;30.30;50.50
18575;DHT22;9417;16.484;102.872;2022-10-18T06:58:27;30.30;50.90
18575;DHT22;9417;16.484;102.872;2022-10-18T07:00:34;30.40;51.30
18575;DHT22;9417;16.484;102.872;2022-10-18T07:02:41;30.40;50.50
18575;DHT22;9417;16.484;102.872;2022-10-18T07:04:48;30.40;50.70
18575;DHT22;9417;16.484;102.872;2022-10-18T07:06:56;30.40;50.60
18575;DHT22;9417;16.484;102.872;2022-10-18T07:09:03;30.40;51.60
18575;DHT22;9417;16.484;102.872;2022-10-18T07:11:15;30.30;50.20
18575;DHT22;9417;16.484;102.872;2022-10-18T07:13:23;30.30;50.60
18575;DHT22;9417;16.484;102.872;2022-10-18T07:15:38;30.20;50.20
18575;DHT22;9417;16.484;102.872;2022-10-18T07:17:44;30.20;50.20
18575;DHT22;9417;16.484;102.872;2022-10-18T07:19:52;30.20;49.80
18575;DHT22;9417;16.484;102.872;2022-10-18T07:21:59;30.20;50.20
18575;DHT22;9417;16.484;102.872;2022-10-18T07:24:07;30.20;50.50
18575;DHT22;9417;16.484;102.872;2022-10-18T07:26:15;30.20;51.00
18575;DHT22;9417;16.484;102.872;2022-10-18T07:28:22;30.20;51.20
18575;DHT22;9417;16.484;102.872;2022-10-18T07:30:29;30.30;50.10
18575;DHT22;9417;16.484;102.872;2022-10-18T07:32:38;30.20;49.10
18575;DHT22;9417;16.484;102.872;2022-10-18T07:34:45;30.30;48.80
18575;DHT22;9417;16.484;102.872;2022-10-18T07:36:53;30.30;49.10
18575;DHT22;9417;16.484;102.872;2022-10-18T07:39:00;30.30;48.60
18575;DHT22;9417;16.484;102.872;2022-10-18T07:41:09;30.30;48.30
18575;DHT22;9417;16.484;102.872;2022-10-18T07:43:17;30.30;48.90
18575;DHT22;9417;16.484;102.872;2022-10-18T07:45:24;30.30;48.90
18575;DHT22;9417;16.484;102.872;2022-10-18T07:47:31;30.30;49.00
18575;DHT22;9417;16.484;102.872;2022-10-18T07:49:40;30.20;48.90
18575;DHT22;9417;16.484;102.872;2022-10-18T07:51:47;30.10;49.20
18575;DHT22;9417;16.484;102.872;2022-10-18T07:53:54;30.10;49.20
18575;DHT22;9417;16.484;102.872;2022-10-18T07:56:02;30.10;50.60
18575;DHT22;9417;16.484;102.872;2022-10-18T07:58:12;30.10;50.30
18575;DHT22;9417;16.484;102.872;2022-10-18T08:00:19;30.20;50.20
18575;DHT22;9417;16.484;102.872;2022-10-18T08:02:26;30.20;50.30
18575;DHT22;9417;16.484;102.872;2022-10-18T08:04:33;30.30;50.50
18575;DHT22;9417;16.484;102.872;2022-10-18T08:06:43;30.20;50.60
18575;DHT22;9417;16.484;102.872;2022-10-18T08:08:50;30.20;50.30
18575;DHT22;9417;16.484;102.872;2022-10-18T08:11:02;30.30;49.70
18575;DHT22;9417;16.484;102.872;2022-10-18T08:13:10;30.20;48.90
18575;DHT22;9417;16.484;102.872;2022-10-18T08:15:17;30.20;50.10
18575;DHT22;9417;16.484;102.872;2022-10-18T08:17:27;30.20;50.20
18575;DHT22;9417;16.484;102.872;2022-10-18T08:19:35;30.20;50.60
18575;DHT22;9417;16.484;102.872;2022-10-18T08:22:02;30.10;50.20
18575;DHT22;9417;16.484;102.872;2022-10-18T08:24:09;30.00;50.00
18575;DHT22;9417;16.484;102.872;2022-10-18T08:26:17;30.00;51.10
18575;DHT22;9417;16.484;102.872;2022-10-18T08:28:25;30.00;50.80
18575;DHT22;9417;16.484;102.872;2022-10-18T08:30:32;30.00;51.00
18575;DHT22;9417;16.484;102.872;2022-10-18T08:32:41;30.10;51.50
18575;DHT22;9417;16.484;102.872;2022-10-18T08:34:47;30.00;51.60
18575;DHT22;9417;16.484;102.872;2022-10-18T08:36:55;30.00;52.00
18575;DHT22;9417;16.484;102.872;2022-10-18T08:39:04;30.10;52.00
18575;DHT22;9417;16.484;102.872;2022-10-18T08:41:42;30.00;52.00
18575;DHT22;9417;16.484;102.872;2022-10-18T08:43:57;30.00;52.80
18575;DHT22;9417;16.484;102.872;2022-10-18T08:46:11;30.00;53.70
18575;DHT22;9417;16.484;102.872;2022-10-18T08:48:31;29.90;53.40
18575;DHT22;9417;16.484;102.872;2022-10-18T08:50:40;29.90;52.90
18575;DHT22;9417;16.484;102.872;2022-10-18T08:52:50;29.90;51.80
18575;DHT22;9417;16.484;102.872;2022-10-18T08:55:02;29.90;52.20
18575;DHT22;9417;16.484;102.872;2022-10-18T08:57:14;29.90;52.40
18575;DHT22;9417;16.484;102.872;2022-10-18T08:59:22;29.90;52.30
18575;DHT22;9417;16.484;102.872;2022-10-18T09:01:38;29.90;52.90
18575;DHT22;9417;16.484;102.872;2022-10-18T09:06:22;29.80;52.40
18575;DHT22;9417;16.484;102.872;2022-10-18T09:08:53;29.80;52.90
18575;DHT22;9417;16.484;102.872;2022-10-18T09:11:17;29.80;53.00
18575;DHT22;9417;16.484;102.872;2022-10-18T09:13:47;29.70;53.20
18575;DHT22;9417;16.484;102.872;2022-10-18T09:16:01;29.60;53.20
18575;DHT22;9417;16.484;102.872;2022-10-18T09:18:21;29.60;53.40
18575;DHT22;9417;16.484;102.872;2022-10-18T09:20:34;29.60;53.80
18575;DHT22;9417;16.484;102.872;2022-10-18T09:22:52;29.50;53.70
18575;DHT22;9417;16.484;102.872;2022-10-18T09:25:04;29.40;54.10
18575;DHT22;9417;16.484;102.872;2022-10-18T09:27:17;29.40;54.40
18575;DHT22;9417;16.484;102.872;2022-10-18T09:29:42;29.40;54.80
18575;DHT22;9417;16.484;102.872;2022-10-18T09:31:56;29.30;54.70
18575;DHT22;9417;16.484;102.872;2022-10-18T09:34:12;29.30;55.00
18575;DHT22;9417;16.484;102.872;2022-10-18T09:36:23;29.20;55.30
18575;DHT22;9417;16.484;102.872;2022-10-18T09:38:39;29.20;55.60
18575;DHT22;9417;16.484;102.872;2022-10-18T09:40:53;29.10;55.60
18575;DHT22;9417;16.484;102.872;2022-10-18T09:43:07;29.10;55.20
18575;DHT22;9417;16.484;102.872;2022-10-18T09:45:23;29.10;55.80
18575;DHT22;9417;16.484;102.872;2022-10-18T09:47:36;29.10;56.00
18575;DHT22;9417;16.484;102.872;2022-10-18T09:49:46;29.00;56.10
18575;DHT22;9417;16.484;102.872;2022-10-18T09:51:54;29.00;56.80
18575;DHT22;9417;16.484;102.872;2022-10-18T09:54:19;28.90;57.20
18575;DHT22;9417;16.484;102.872;2022-10-18T09:56:29;28.90;57.30
18575;DHT22;9417;16.484;102.872;2022-10-18T09:58:46;28.80;57.30
18575;DHT22;9417;16.484;102.872;2022-10-18T10:00:55;28.70;56.90
18575;DHT22;9417;16.484;102.872;2022-10-18T10:03:09;28.70;57.10
18575;DHT22;9417;16.484;102.872;2022-10-18T10:05:18;28.70;57.60
18575;DHT22;9417;16.484;102.872;2022-10-18T10:07:27;28.60;56.90
18575;DHT22;9417;16.484;102.872;2022-10-18T10:09:38;28.60;56.80
18575;DHT22;9417;16.484;102.872;2022-10-18T10:11:47;28.50;57.00
18575;DHT22;9417;16.484;102.872;2022-10-18T10:14:07;28.50;57.60
18575;DHT22;9417;16.484;102.872;2022-10-18T10:16:15;28.50;57.70
18575;DHT22;9417;16.484;102.872;2022-10-18T10:18:23;28.50;58.20
18575;DHT22;9417;16.484;102.872;2022-10-18T10:20:34;28.40;58.50
18575;DHT22;9417;16.484;102.872;2022-10-18T10:22:43;28.40;58.40
18575;DHT22;9417;16.484;102.872;2022-10-18T10:24:53;28.40;58.60
18575;DHT22;9417;16.484;102.872;2022-10-18T10:27:03;28.30;58.60
18575;DHT22;9417;16.484;102.872;2022-10-18T10:32:01;28.30;59.80
18575;DHT22;9417;16.484;102.872;2022-10-18T10:34:18;28.20;59.00
18575;DHT22;9417;16.484;102.872;2022-10-18T10:36:26;28.10;59.00
18575;DHT22;9417;16.484;102.872;2022-10-18T10:38:33;28.10;59.20
18575;DHT22;9417;16.484;102.872;2022-10-18T10:40:47;28.00;59.60
18575;DHT22;9417;16.484;102.872;2022-10-18T10:43:16;28.00;60.20
18575;DHT22;9417;16.484;102.872;2022-10-18T10:45:54;28.00;61.20
18575;DHT22;9417;16.484;102.872;2022-10-18T10:48:15;27.90;61.40
18575;DHT22;9417;16.484;102.872;2022-10-18T10:50:27;27.80;61.10
18575;DHT22;9417;16.484;102.872;2022-10-18T10:52:48;27.80;61.60
18575;DHT22;9417;16.484;102.872;2022-10-18T10:55:17;27.70;62.70
18575;DHT22;9417;16.484;102.872;2022-10-18T10:57:38;27.60;65.30
18575;DHT22;9417;16.484;102.872;2022-10-18T10:59:47;27.60;66.00
18575;DHT22;9417;16.484;102.872;2022-10-18T11:02:18;27.40;66.30
18575;DHT22;9417;16.484;102.872;2022-10-18T11:04:29;27.40;68.90
18575;DHT22;9417;16.484;102.872;2022-10-18T11:07:00;27.20;68.50
18575;DHT22;9417;16.484;102.872;2022-10-18T11:09:26;27.10;70.30
18575;DHT22;9417;16.484;102.872;2022-10-18T11:11:39;27.00;69.70
18575;DHT22;9417;16.484;102.872;2022-10-18T11:13:53;26.80;70.60
18575;DHT22;9417;16.484;102.872;2022-10-18T11:16:28;26.80;70.10
18575;DHT22;9417;16.484;102.872;2022-10-18T11:18:38;26.60;70.10
18575;DHT22;9417;16.484;102.872;2022-10-18T11:20:52;26.50;70.30
18575;DHT22;9417;16.484;102.872;2022-10-18T11:23:01;26.50;71.60
18575;DHT22;9417;16.484;102.872;2022-10-18T11:25:11;26.40;72.40
18575;DHT22;9417;16.484;102.872;2022-10-18T11:27:23;26.40;74.70
18575;DHT22;9417;16.484;102.872;2022-10-18T11:29:41;26.30;76.00
18575;DHT22;9417;16.484;102.872;2022-10-18T11:32:01;26.30;76.50
18575;DHT22;9417;16.484;102.872;2022-10-18T11:34:34;26.20;77.40
18575;DHT22;9417;16.484;102.872;2022-10-18T11:36:52;26.10;77.50
18575;DHT22;9417;16.484;102.872;2022-10-18T11:39:23;26.10;78.40
18575;DHT22;9417;16.484;102.872;2022-10-18T11:41:37;26.00;78.30
18575;DHT22;9417;16.484;102.872;2022-10-18T11:43:50;26.00;78.80
18575;DHT22;9417;16.484;102.872;2022-10-18T11:46:11;25.80;79.70
18575;DHT22;9417;16.484;102.872;2022-10-18T11:48:47;25.80;80.40
18575;DHT22;9417;16.484;102.872;2022-10-18T11:51:01;25.80;81.50
18575;DHT22;9417;16.484;102.872;2022-10-18T11:53:21;25.70;81.20
18575;DHT22;9417;16.484;102.872;2022-10-18T11:55:38;25.60;81.60
18575;DHT22;9417;16.484;102.872;2022-10-18T11:57:54;25.60;81.30
18575;DHT22;9417;16.484;102.872;2022-10-18T12:00:10;25.40;80.20
18575;DHT22;9417;16.484;102.872;2022-10-18T12:02:49;25.30;79.50
18575;DHT22;9417;16.484;102.872;2022-10-18T12:05:01;25.30;80.10
18575;DHT22;9417;16.484;102.872;2022-10-18T12:07:27;25.20;79.40
18575;DHT22;9417;16.484;102.872;2022-10-18T12:09:40;25.20;80.50
18575;DHT22;9417;16.484;102.872;2022-10-18T12:11:51;25.20;80.30
18575;DHT22;9417;16.484;102.872;2022-10-18T12:14:01;25.10;80.90
18575;DHT22;9417;16.484;102.872;2022-10-18T12:16:09;25.10;80.90
18575;DHT22;9417;16.484;102.872;2022-10-18T12:18:18;25.10;81.30
18575;DHT22;9417;16.484;102.872;2022-10-18T12:20:30;25.10;81.20
18575;DHT22;9417;16.484;102.872;2022-10-18T12:22:42;25.10;80.90
18575;DHT22;9417;16.484;102.872;2022-10-18T12:24:53;25.00;81.00
18575;DHT22;9417;16.484;102.872;2022-10-18T12:27:00;25.00;82.00
18575;DHT22;9417;16.484;102.872;2022-10-18T12:29:19;25.00;82.40
18575;DHT22;9417;16.484;102.872;2022-10-18T12:31:31;24.90;82.40
18575;DHT22;9417;16.484;102.872;2022-10-18T12:33:43;24.80;82.00
18575;DHT22;9417;16.484;102.872;2022-10-18T12:35:59;24.80;82.40
18575;DHT22;9417;16.484;102.872;2022-10-18T12:38:19;24.70;82.50
18575;DHT22;9417;16.484;102.872;2022-10-18T12:40:35;24.70;82.40
18575;DHT22;9417;16.484;102.872;2022-10-18T12:42:44;24.60;82.10
18575;DHT22;9417;16.484;102.872;2022-10-18T12:45:01;24.50;82.50
18575;DHT22;9417;16.484;102.872;2022-10-18T12:47:20;24.50;82.40
18575;DHT22;9417;16.484;102.872;2022-10-18T12:49:30;24.60;83.30
18575;DHT22;9417;16.484;102.872;2022-10-18T12:51:49;24.60;82.70
18575;DHT22;9417;16.484;102.872;2022-10-18T12:54:09;24.60;83.20
18575;DHT22;9417;16.484;102.872;2022-10-18T12:56:37;24.50;83.80
18575;DHT22;9417;16.484;102.872;2022-10-18T12:58:45;24.50;85.70
18575;DHT22;9417;16.484;102.872;2022-10-18T13:00:55;24.40;85.20
18575;DHT22;9417;16.484;102.872;2022-10-18T13:05:54;24.40;85.70
18575;DHT22;9417;16.484;102.872;2022-10-18T13:11:27;24.40;86.80
18575;DHT22;9417;16.484;102.872;2022-10-18T13:13:55;24.40;87.30
18575;DHT22;9417;16.484;102.872;2022-10-18T13:16:27;24.40;87.10
18575;DHT22;9417;16.484;102.872;2022-10-18T13:18:45;24.50;87.00
18575;DHT22;9417;16.484;102.872;2022-10-18T13:20:59;24.40;87.00
18575;DHT22;9417;16.484;102.872;2022-10-18T13:23:28;24.40;86.80
18575;DHT22;9417;16.484;102.872;2022-10-18T13:25:52;24.40;87.10
18575;DHT22;9417;16.484;102.872;2022-10-18T13:28:13;24.40;86.60
18575;DHT22;9417;16.484;102.872;2022-10-18T13:30:30;24.40;86.00
18575;DHT22;9417;16.484;102.872;2022-10-18T13:32:49;24.40;86.40
18575;DHT22;9417;16.484;102.872;2022-10-18T13:35:00;24.40;86.70
18575;DHT22;9417;16.484;102.872;2022-10-18T13:37:20;24.40;86.80
18575;DHT22;9417;16.484;102.872;2022-10-18T13:39:28;24.30;86.70
18575;DHT22;9417;16.484;102.872;2022-10-18T13:44:26;24.20;86.40
18575;DHT22;9417;16.484;102.872;2022-10-18T13:49:31;24.10;86.40
18575;DHT22;9417;16.484;102.872;2022-10-18T13:51:52;24.10;86.80
18575;DHT22;9417;16.484;102.872;2022-10-18T13:54:08;24.10;87.10
18575;DHT22;9417;16.484;102.872;2022-10-18T13:56:40;24.10;87.30